KWHP/WHP METAR and TAF weather

Enter ICAO airport designator
Station Type Date Time Source
KWHP METAR 2022/06/27 17:50 UTC NOAA

KWHP 271750Z 14005KT 10SM SKC 33/11 A3005 RMK OBSERVER HT


Station Type Date Time Source
KWHP Decoded METAR 2022/06/27 17:50 UTC NOAA

Los Angeles, Whiteman Airport, CA, United States (KWHP) 34-15N 118-24W
Jun 27, 2022 - 01:50 PM EDT / 2022.06.27 1750 UTC
Wind: from the SE (140 degrees) at 6 MPH (5 KT):0
Visibility: 10 mile(s):0
Sky conditions: clear
Temperature: 91 F (33 C)
Dew Point: 51 F (11 C)
Relative Humidity: 26%
Pressure (altimeter): 30.05 in. Hg (1017 hPa)
ob: KWHP 271750Z 14005KT 10SM SKC 33/11 A3005 RMK OBSERVER HT
cycle: 18

Station Type Date Time Source
KWHP TAF UTC NOAA

Error!

Example: see airport list